Fishburn — VJ6978 — position and weather

sailwx.info

Track history (hours):
 
Tides and Currents Weather Stations Pressure Air Temp Water Temp Dewpoint Dewpoint Depression Visibility Wind Speed Wind Dir Waves Ship Positions

Fishburn

Last reported at 2018-May-22 22:54 UTC. Time now 2018-May-23 03:36 UTC.
Position S 33°52' E 151°15'.

Type: Passenger vessel. MMSI: 503345300.

Date/timePositionNaut miles runAvg speedWind from/ knotsBaromVisibWave heightAir tempDewpointWater temp
2018-May-22 22:54S 33°52' E 151°15'2 0.8
2018-May-22 20:48S 33°51' E 151°13'0 0.7
2018-May-22 20:29S 33°52' E 151°13'0 0.0
2018-May-22 19:56S 33°52' E 151°13'0 0.0
2018-May-22 19:22S 33°52' E 151°13'0 0.0
2018-May-22 18:50S 33°52' E 151°13'0 0.0
2018-May-22 18:24S 33°52' E 151°13'0 0.0
2018-May-22 17:57S 33°52' E 151°13'0 0.0
2018-May-22 17:24S 33°52' E 151°13'0 0.0
2018-May-22 17:00S 33°52' E 151°13'0 0.0
2018-May-22 16:23S 33°52' E 151°13'0 0.0
2018-May-22 16:00S 33°52' E 151°13'0 0.0
2018-May-22 15:26S 33°52' E 151°13'0 0.0
2018-May-22 14:47S 33°52' E 151°13'1 4.2
2018-May-22 14:30S 33°51' E 151°14'1 1.9
2018-May-22 13:53S 33°52' E 151°13'1 1.5
2018-May-22 13:31S 33°51' E 151°13'1 1.1
2018-May-22 13:00S 33°52' E 151°13'1 1.1
2018-May-22 12:30S 33°51' E 151°13'1 0.3
2018-May-22 10:38S 33°52' E 151°13'1 6.4
2018-May-22 10:30S 33°51' E 151°14'1 1.9
2018-May-22 10:00S 33°52' E 151°13'0 0.1
2018-May-22 09:10S 33°52' E 151°13'1 4.2
2018-May-22 09:00S 33°51' E 151°13'1 1.1
2018-May-22 08:30S 33°51' E 151°13'1 2.8
2018-May-22 08:00S 33°51' E 151°11'0 0.9
2018-May-22 07:29S 33°51' E 151°11'3 0.3
2018-May-21 22:49S 33°52' E 151°15'2 0.8
2018-May-21 20:43S 33°52' E 151°13'0 0.1
2018-May-21 20:27S 33°52' E 151°13'0 0.0
2018-May-21 20:00S 33°52' E 151°13'0 0.0
2018-May-21 19:29S 33°52' E 151°13'0 0.0
2018-May-21 18:59S 33°52' E 151°13'0 0.0
2018-May-21 17:55S 33°52' E 151°13'0 0.0
2018-May-21 17:29S 33°52' E 151°13'0 0.0
2018-May-21 16:51S 33°52' E 151°13'0 0.0
2018-May-21 16:29S 33°52' E 151°13'0 0.0
2018-May-21 14:56S 33°52' E 151°13'1 2.7
2018-May-21 14:30S 33°51' E 151°14'1 2.2
2018-May-21 14:00S 33°52' E 151°13'1 1.0
2018-May-21 13:30S 33°51' E 151°13'0 0.5
2018-May-21 13:00S 33°51' E 151°13'0 0.0
2018-May-21 12:29S 33°51' E 151°13'0 0.0
2018-May-21 11:49S 33°51' E 151°13'0 0.6
2018-May-21 11:30S 33°51' E 151°13'0 0.4
2018-May-21 10:39S 33°52' E 151°13'2 7.0
2018-May-21 10:26S 33°51' E 151°14'2 3.2
2018-May-21 09:58S 33°52' E 151°13'1 2.8
2018-May-21 09:30S 33°51' E 151°11'1 1.0
2018-May-21 08:54S 33°51' E 151°12'1 3.2
2018-May-21 08:30S 33°51' E 151°13'0 0.9
2018-May-21 08:00S 33°51' E 151°13'0 0.2
2018-May-21 07:30S 33°51' E 151°13'0 0.0
2018-May-20 20:37S 33°52' E 151°13'0 0.0
2018-May-20 20:31S 33°52' E 151°13'0 0.0
2018-May-20 20:00S 33°52' E 151°13'0 0.0
2018-May-20 19:30S 33°52' E 151°13'0 0.0
2018-May-20 19:00S 33°52' E 151°13'0 0.0
2018-May-20 18:30S 33°52' E 151°13'0 0.0
2018-May-20 18:00S 33°52' E 151°13'0 0.0
2018-May-20 17:30S 33°52' E 151°13'0 0.0
2018-May-20 16:59S 33°52' E 151°13'0 0.0
2018-May-20 16:30S 33°52' E 151°13'0 0.0
2018-May-20 15:56S 33°52' E 151°13'0 0.0
2018-May-20 15:30S 33°52' E 151°13'0 0.0
2018-May-20 14:55S 33°52' E 151°13'0 0.0
2018-May-20 14:30S 33°52' E 151°13'0 0.0
2018-May-20 14:00S 33°52' E 151°13'0 0.0
2018-May-20 13:27S 33°52' E 151°13'0 0.0
2018-May-20 12:56S 33°52' E 151°13'0 0.0
2018-May-20 12:29S 33°52' E 151°13'0 0.0
2018-May-20 10:13S 33°52' E 151°13'1 0.5
2018-May-20 08:51S 33°51' E 151°12'1 1.6
2018-May-20 08:29S 33°52' E 151°13'0 0.0
2018-May-20 08:00S 33°52' E 151°13'1 0.8
2018-May-20 07:12S 33°51' E 151°12'1 0.1
2018-May-19 20:22S 33°52' E 151°13'0 0.0
2018-May-19 19:59S 33°52' E 151°13'0 0.0
2018-May-19 19:29S 33°52' E 151°13'0 0.0
2018-May-19 18:46S 33°52' E 151°13'0 0.0
2018-May-19 18:22S 33°52' E 151°13'0 0.0
2018-May-19 17:54S 33°52' E 151°13'0 0.0
2018-May-19 17:10S 33°52' E 151°13'0 0.0
2018-May-19 15:26S 33°52' E 151°13'0 0.0
2018-May-19 14:51S 33°52' E 151°13'1 3.1
2018-May-19 14:30S 33°51' E 151°14'1 2.1
2018-May-19 14:00S 33°52' E 151°13'1 2.9
2018-May-19 13:30S 33°51' E 151°11'0 0.8
2018-May-19 12:57S 33°51' E 151°11'2 4.7
2018-May-19 12:30S 33°51' E 151°14'1 1.9
2018-May-19 11:50S 33°52' E 151°13'1 1.6
2018-May-19 11:29S 33°51' E 151°13'1 0.8
2018-May-19 10:46S 33°52' E 151°13'1 2.2
2018-May-19 10:30S 33°51' E 151°13'0 0.7
2018-May-19 10:00S 33°51' E 151°13'1 0.9
2018-May-19 08:54S 33°51' E 151°12'1 3.2
2018-May-19 08:30S 33°51' E 151°13'0 0.9
2018-May-19 07:59S 33°52' E 151°13'0 0.9
2018-May-19 07:26S 33°51' E 151°13'1 0.1
2018-May-18 20:38S 33°52' E 151°13'0 0.0
2018-May-18 20:29S 33°52' E 151°13'0 0.0
2018-May-18 20:00S 33°52' E 151°13'0 0.0
2018-May-18 19:30S 33°52' E 151°13'0 0.0
2018-May-18 19:00S 33°52' E 151°13'0 0.0
2018-May-18 18:30S 33°52' E 151°13'0 0.0
2018-May-18 18:00S 33°52' E 151°13'0 0.0
2018-May-18 17:30S 33°52' E 151°13'0 0.0
2018-May-18 17:00S 33°52' E 151°13'0 0.0
2018-May-18 16:30S 33°52' E 151°13'0 0.0
2018-May-18 16:00S 33°52' E 151°13'0 0.0
2018-May-18 15:30S 33°52' E 151°13'0 0.0
2018-May-18 14:49S 33°52' E 151°13'1 3.9
2018-May-18 14:30S 33°51' E 151°14'1 2.5
2018-May-18 14:00S 33°52' E 151°13'0 0.9
2018-May-18 13:30S 33°51' E 151°13'0 0.7
2018-May-18 12:52S 33°52' E 151°13'1 0.1
2018-May-18 07:31S 33°51' E 151°13'1 9.5
2018-May-18 07:27S 33°52' E 151°13'0 0.0
2018-May-17 20:33S 33°52' E 151°13'0 0.0
2018-May-17 20:24S 33°52' E 151°13'0 0.0
2018-May-17 20:00S 33°52' E 151°13'0 0.0
2018-May-17 19:16S 33°52' E 151°13'0 0.0
2018-May-17 19:00S 33°52' E 151°13'0 0.0
2018-May-17 18:27S 33°52' E 151°13'0 0.0
2018-May-17 17:53S 33°52' E 151°13'0 0.0
2018-May-17 17:29S 33°52' E 151°13'0 0.0
2018-May-17 16:55S 33°52' E 151°13'0 0.0
2018-May-17 16:30S 33°52' E 151°13'0 0.0
2018-May-17 15:59S 33°52' E 151°13'0 0.0
2018-May-17 15:26S 33°52' E 151°13'0 0.0
2018-May-17 14:49S 33°52' E 151°13'1 3.9
2018-May-17 14:30S 33°51' E 151°14'1 2.3
2018-May-17 13:59S 33°52' E 151°13'0 0.4
2018-May-17 13:29S 33°51' E 151°13'0 0.4
2018-May-17 12:59S 33°52' E 151°13'1 1.4
2018-May-17 12:30S 33°51' E 151°13'1 1.3
2018-May-17 12:00S 33°52' E 151°13'1 1.0
2018-May-17 11:29S 33°51' E 151°13'1 0.6
2018-May-17 10:34S 33°52' E 151°13'1 7.9
2018-May-17 10:30S 33°51' E 151°13'0 0.2
2018-May-17 08:48S 33°51' E 151°13'1 1.6
2018-May-17 08:30S 33°51' E 151°13'1 1.1
2018-May-17 07:57S 33°52' E 151°13'2 0.6
2018-May-17 05:19S 33°52' E 151°15'3 0.3
2018-May-16 20:39S 33°51' E 151°11'0 0.0
2018-May-16 20:30S 33°51' E 151°11'0 0.0
2018-May-16 20:00S 33°51' E 151°11'0 0.0
2018-May-16 19:30S 33°51' E 151°11'0 0.0
2018-May-16 19:00S 33°51' E 151°11'0 0.0
2018-May-16 18:29S 33°51' E 151°11'0 0.0
2018-May-16 17:59S 33°51' E 151°11'0 0.0
2018-May-16 17:30S 33°51' E 151°11'0 0.0
2018-May-16 16:59S 33°51' E 151°11'0 0.0
2018-May-16 16:30S 33°51' E 151°11'0 0.0
2018-May-16 15:59S 33°51' E 151°11'0 0.0
2018-May-16 15:30S 33°51' E 151°11'0 0.0
2018-May-16 15:00S 33°51' E 151°11'0 0.0
2018-May-16 14:18S 33°51' E 151°11'0 0.0
2018-May-16 14:00S 33°51' E 151°11'0 0.0
2018-May-16 13:02S 33°51' E 151°11'0 0.0
2018-May-16 12:43S 33°51' E 151°11'0 0.0
2018-May-16 10:59S 33°51' E 151°11'0 0.0
2018-May-16 10:30S 33°51' E 151°11'0 0.0
2018-May-16 09:56S 33°51' E 151°11'0 0.0
2018-May-16 09:27S 33°51' E 151°11'0 0.0
2018-May-16 08:53S 33°51' E 151°11'0 0.0
2018-May-16 08:26S 33°51' E 151°11'0 0.0
2018-May-16 08:00S 33°51' E 151°11'0 0.0
2018-May-16 07:16S 33°51' E 151°11'  
Track history (hours):
 
Tides and Currents Weather Stations Pressure Air Temp Water Temp Dewpoint Dewpoint Depression Visibility Wind Speed Wind Dir Waves Ship Positions

Fishburn

Last reported at 2018-May-22 22:54 UTC. Time now 2018-May-23 03:36 UTC.
Position S 33°52' E 151°15'.

Type: Passenger vessel. MMSI: 503345300.

Date/timePositionNaut miles runAvg speedWind from/ knotsBaromVisibWave heightAir tempDewpointWater temp
2018-May-22 22:54S 33°52' E 151°15'2 0.8
2018-May-22 20:48S 33°51' E 151°13'0 0.7
2018-May-22 20:29S 33°52' E 151°13'0 0.0
2018-May-22 19:56S 33°52' E 151°13'0 0.0
2018-May-22 19:22S 33°52' E 151°13'0 0.0
2018-May-22 18:50S 33°52' E 151°13'0 0.0
2018-May-22 18:24S 33°52' E 151°13'0 0.0
2018-May-22 17:57S 33°52' E 151°13'0 0.0
2018-May-22 17:24S 33°52' E 151°13'0 0.0
2018-May-22 17:00S 33°52' E 151°13'0 0.0
2018-May-22 16:23S 33°52' E 151°13'0 0.0
2018-May-22 16:00S 33°52' E 151°13'0 0.0
2018-May-22 15:26S 33°52' E 151°13'0 0.0
2018-May-22 14:47S 33°52' E 151°13'1 4.2
2018-May-22 14:30S 33°51' E 151°14'1 1.9
2018-May-22 13:53S 33°52' E 151°13'1 1.5
2018-May-22 13:31S 33°51' E 151°13'1 1.1
2018-May-22 13:00S 33°52' E 151°13'1 1.1
2018-May-22 12:30S 33°51' E 151°13'1 0.3
2018-May-22 10:38S 33°52' E 151°13'1 6.4
2018-May-22 10:30S 33°51' E 151°14'1 1.9
2018-May-22 10:00S 33°52' E 151°13'0 0.1
2018-May-22 09:10S 33°52' E 151°13'1 4.2
2018-May-22 09:00S 33°51' E 151°13'1 1.1
2018-May-22 08:30S 33°51' E 151°13'1 2.8
2018-May-22 08:00S 33°51' E 151°11'0 0.9
2018-May-22 07:29S 33°51' E 151°11'3 0.3
2018-May-21 22:49S 33°52' E 151°15'2 0.8
2018-May-21 20:43S 33°52' E 151°13'0 0.1
2018-May-21 20:27S 33°52' E 151°13'0 0.0
2018-May-21 20:00S 33°52' E 151°13'0 0.0
2018-May-21 19:29S 33°52' E 151°13'0 0.0
2018-May-21 18:59S 33°52' E 151°13'0 0.0
2018-May-21 17:55S 33°52' E 151°13'0 0.0
2018-May-21 17:29S 33°52' E 151°13'0 0.0
2018-May-21 16:51S 33°52' E 151°13'0 0.0
2018-May-21 16:29S 33°52' E 151°13'0 0.0
2018-May-21 14:56S 33°52' E 151°13'1 2.7
2018-May-21 14:30S 33°51' E 151°14'1 2.2
2018-May-21 14:00S 33°52' E 151°13'1 1.0
2018-May-21 13:30S 33°51' E 151°13'0 0.5
2018-May-21 13:00S 33°51' E 151°13'0 0.0
2018-May-21 12:29S 33°51' E 151°13'0 0.0
2018-May-21 11:49S 33°51' E 151°13'0 0.6
2018-May-21 11:30S 33°51' E 151°13'0 0.4
2018-May-21 10:39S 33°52' E 151°13'2 7.0
2018-May-21 10:26S 33°51' E 151°14'2 3.2
2018-May-21 09:58S 33°52' E 151°13'1 2.8
2018-May-21 09:30S 33°51' E 151°11'1 1.0
2018-May-21 08:54S 33°51' E 151°12'1 3.2
2018-May-21 08:30S 33°51' E 151°13'0 0.9
2018-May-21 08:00S 33°51' E 151°13'0 0.2
2018-May-21 07:30S 33°51' E 151°13'0 0.0
2018-May-20 20:37S 33°52' E 151°13'0 0.0
2018-May-20 20:31S 33°52' E 151°13'0 0.0
2018-May-20 20:00S 33°52' E 151°13'0 0.0
2018-May-20 19:30S 33°52' E 151°13'0 0.0
2018-May-20 19:00S 33°52' E 151°13'0 0.0
2018-May-20 18:30S 33°52' E 151°13'0 0.0
2018-May-20 18:00S 33°52' E 151°13'0 0.0
2018-May-20 17:30S 33°52' E 151°13'0 0.0
2018-May-20 16:59S 33°52' E 151°13'0 0.0
2018-May-20 16:30S 33°52' E 151°13'0 0.0
2018-May-20 15:56S 33°52' E 151°13'0 0.0
2018-May-20 15:30S 33°52' E 151°13'0 0.0
2018-May-20 14:55S 33°52' E 151°13'0 0.0
2018-May-20 14:30S 33°52' E 151°13'0 0.0
2018-May-20 14:00S 33°52' E 151°13'0 0.0
2018-May-20 13:27S 33°52' E 151°13'0 0.0
2018-May-20 12:56S 33°52' E 151°13'0 0.0
2018-May-20 12:29S 33°52' E 151°13'0 0.0
2018-May-20 10:13S 33°52' E 151°13'1 0.5
2018-May-20 08:51S 33°51' E 151°12'1 1.6
2018-May-20 08:29S 33°52' E 151°13'0 0.0
2018-May-20 08:00S 33°52' E 151°13'1 0.8
2018-May-20 07:12S 33°51' E 151°12'1 0.1
2018-May-19 20:22S 33°52' E 151°13'0 0.0
2018-May-19 19:59S 33°52' E 151°13'0 0.0
2018-May-19 19:29S 33°52' E 151°13'0 0.0
2018-May-19 18:46S 33°52' E 151°13'0 0.0
2018-May-19 18:22S 33°52' E 151°13'0 0.0
2018-May-19 17:54S 33°52' E 151°13'0 0.0
2018-May-19 17:10S 33°52' E 151°13'0 0.0
2018-May-19 15:26S 33°52' E 151°13'0 0.0
2018-May-19 14:51S 33°52' E 151°13'1 3.1
2018-May-19 14:30S 33°51' E 151°14'1 2.1
2018-May-19 14:00S 33°52' E 151°13'1 2.9
2018-May-19 13:30S 33°51' E 151°11'0 0.8
2018-May-19 12:57S 33°51' E 151°11'2 4.7
2018-May-19 12:30S 33°51' E 151°14'1 1.9
2018-May-19 11:50S 33°52' E 151°13'1 1.6
2018-May-19 11:29S 33°51' E 151°13'1 0.8
2018-May-19 10:46S 33°52' E 151°13'1 2.2
2018-May-19 10:30S 33°51' E 151°13'0 0.7
2018-May-19 10:00S 33°51' E 151°13'1 0.9
2018-May-19 08:54S 33°51' E 151°12'1 3.2
2018-May-19 08:30S 33°51' E 151°13'0 0.9
2018-May-19 07:59S 33°52' E 151°13'0 0.9
2018-May-19 07:26S 33°51' E 151°13'1 0.1
2018-May-18 20:38S 33°52' E 151°13'0 0.0
2018-May-18 20:29S 33°52' E 151°13'0 0.0
2018-May-18 20:00S 33°52' E 151°13'0 0.0
2018-May-18 19:30S 33°52' E 151°13'0 0.0
2018-May-18 19:00S 33°52' E 151°13'0 0.0
2018-May-18 18:30S 33°52' E 151°13'0 0.0
2018-May-18 18:00S 33°52' E 151°13'0 0.0
2018-May-18 17:30S 33°52' E 151°13'0 0.0
2018-May-18 17:00S 33°52' E 151°13'0 0.0
2018-May-18 16:30S 33°52' E 151°13'0 0.0
2018-May-18 16:00S 33°52' E 151°13'0 0.0
2018-May-18 15:30S 33°52' E 151°13'0 0.0
2018-May-18 14:49S 33°52' E 151°13'1 3.9
2018-May-18 14:30S 33°51' E 151°14'1 2.5
2018-May-18 14:00S 33°52' E 151°13'0 0.9
2018-May-18 13:30S 33°51' E 151°13'0 0.7
2018-May-18 12:52S 33°52' E 151°13'1 0.1
2018-May-18 07:31S 33°51' E 151°13'1 9.5
2018-May-18 07:27S 33°52' E 151°13'0 0.0
2018-May-17 20:33S 33°52' E 151°13'0 0.0
2018-May-17 20:24S 33°52' E 151°13'0 0.0
2018-May-17 20:00S 33°52' E 151°13'0 0.0
2018-May-17 19:16S 33°52' E 151°13'0 0.0
2018-May-17 19:00S 33°52' E 151°13'0 0.0
2018-May-17 18:27S 33°52' E 151°13'0 0.0
2018-May-17 17:53S 33°52' E 151°13'0 0.0
2018-May-17 17:29S 33°52' E 151°13'0 0.0
2018-May-17 16:55S 33°52' E 151°13'0 0.0
2018-May-17 16:30S 33°52' E 151°13'0 0.0
2018-May-17 15:59S 33°52' E 151°13'0 0.0
2018-May-17 15:26S 33°52' E 151°13'0 0.0
2018-May-17 14:49S 33°52' E 151°13'1 3.9
2018-May-17 14:30S 33°51' E 151°14'1 2.3
2018-May-17 13:59S 33°52' E 151°13'0 0.4
2018-May-17 13:29S 33°51' E 151°13'0 0.4
2018-May-17 12:59S 33°52' E 151°13'1 1.4
2018-May-17 12:30S 33°51' E 151°13'1 1.3
2018-May-17 12:00S 33°52' E 151°13'1 1.0
2018-May-17 11:29S 33°51' E 151°13'1 0.6
2018-May-17 10:34S 33°52' E 151°13'1 7.9
2018-May-17 10:30S 33°51' E 151°13'0 0.2
2018-May-17 08:48S 33°51' E 151°13'1 1.6
2018-May-17 08:30S 33°51' E 151°13'1 1.1
2018-May-17 07:57S 33°52' E 151°13'2 0.6
2018-May-17 05:19S 33°52' E 151°15'3 0.3
2018-May-16 20:39S 33°51' E 151°11'0 0.0
2018-May-16 20:30S 33°51' E 151°11'0 0.0
2018-May-16 20:00S 33°51' E 151°11'0 0.0
2018-May-16 19:30S 33°51' E 151°11'0 0.0
2018-May-16 19:00S 33°51' E 151°11'0 0.0
2018-May-16 18:29S 33°51' E 151°11'0 0.0
2018-May-16 17:59S 33°51' E 151°11'0 0.0
2018-May-16 17:30S 33°51' E 151°11'0 0.0
2018-May-16 16:59S 33°51' E 151°11'0 0.0
2018-May-16 16:30S 33°51' E 151°11'0 0.0
2018-May-16 15:59S 33°51' E 151°11'0 0.0
2018-May-16 15:30S 33°51' E 151°11'0 0.0
2018-May-16 15:00S 33°51' E 151°11'0 0.0
2018-May-16 14:18S 33°51' E 151°11'0 0.0
2018-May-16 14:00S 33°51' E 151°11'0 0.0
2018-May-16 13:02S 33°51' E 151°11'0 0.0
2018-May-16 12:43S 33°51' E 151°11'0 0.0
2018-May-16 10:59S 33°51' E 151°11'0 0.0
2018-May-16 10:30S 33°51' E 151°11'0 0.0
2018-May-16 09:56S 33°51' E 151°11'0 0.0
2018-May-16 09:27S 33°51' E 151°11'0 0.0
2018-May-16 08:53S 33°51' E 151°11'0 0.0
2018-May-16 08:26S 33°51' E 151°11'0 0.0
2018-May-16 08:00S 33°51' E 151°11'0 0.0
2018-May-16 07:16S 33°51' E 151°11'  

Dump ship's entire track history